Terminal Aerodrome Forecast
Issued by NWS Upton, NY

Home | Current Version | Previous Version | Text Only | Print | Product List | Glossary On
Versions: 1 2 3 4 5 6 7 8 9 10 11 12 13 14 15 16 17 18 19 20 21 22 23 24 25 26
000
FTUS41 KOKX 250520
TAFJFK
TAF
KJFK 250520Z 2506/2612 33013KT P6SM SKC
     FM250900 29012KT P6SM SKC
     FM251400 29013G19KT P6SM SCT250
     FM252000 23012G20KT P6SM FEW050 SCT250
     FM260000 21009KT P6SM SCT250
     FM260300 VRB05KT P6SM BKN250
     FM260600 01005KT P6SM BKN250=

USA.gov is the U.S. government's official web portal to all federal, state and local government web resources and services.